createdAt,value
2017-04-28T00:00:10.792Z,929.51
2017-04-28T00:00:39.076Z,929.47
2017-04-28T00:01:07.370Z,929.49
2017-04-28T00:01:35.638Z,929.42
2017-04-28T00:02:46.901Z,929.44
2017-04-28T00:03:15.209Z,929.42
2017-04-28T00:03:43.329Z,929.41
2017-04-28T00:04:11.602Z,929.45
2017-04-28T00:04:39.783Z,929.43
2017-04-28T00:05:08.127Z,929.41
2017-04-28T00:06:02.039Z,929.39
2017-04-28T00:06:30.346Z,929.42
2017-04-28T00:06:58.474Z,929.4
2017-04-28T00:07:26.763Z,929.44
2017-04-28T00:07:55.119Z,929.39
2017-04-28T00:09:06.456Z,929.42
2017-04-28T00:09:34.853Z,929.46
2017-04-28T00:10:03.069Z,929.47
2017-04-28T00:10:31.339Z,929.43
2017-04-28T00:10:59.605Z,929.43
2017-04-28T00:11:27.861Z,929.42
2017-04-28T00:11:56.193Z,929.45
2017-04-28T00:12:24.419Z,929.46
2017-04-28T00:12:52.646Z,929.44
2017-04-28T00:13:20.935Z,929.45
2017-04-28T00:13:49.299Z,929.46
2017-04-28T00:15:00.738Z,929.45
2017-04-28T00:15:28.957Z,929.44
2017-04-28T00:15:57.165Z,929.53
2017-04-28T00:16:25.444Z,929.49
2017-04-28T00:16:53.619Z,929.51
2017-04-28T00:17:21.872Z,929.46
2017-04-28T00:17:49.933Z,929.47
2017-04-28T00:18:19.671Z,929.51
2017-04-28T00:18:47.814Z,929.48
2017-04-28T00:19:16.201Z,929.46
2017-04-28T00:19:44.464Z,929.47
2017-04-28T00:20:55.892Z,929.49
2017-04-28T00:21:24.266Z,929.5
2017-04-28T00:21:52.549Z,929.55
2017-04-28T00:22:20.900Z,929.5
2017-04-28T00:22:49.150Z,929.5
2017-04-28T00:23:17.380Z,929.55
2017-04-28T00:23:45.589Z,929.55
2017-04-28T00:24:13.896Z,929.52
2017-04-28T00:24:41.918Z,929.55
2017-04-28T00:25:10.285Z,929.57
2017-04-28T00:25:38.525Z,929.58
2017-04-28T00:26:49.854Z,929.6
2017-04-28T00:27:18.225Z,929.6
2017-04-28T00:27:46.412Z,929.63
2017-04-28T00:28:14.764Z,929.61
2017-04-28T00:28:42.923Z,929.64
2017-04-28T00:29:11.247Z,929.61
2017-04-28T00:29:39.377Z,929.6
2017-04-28T00:30:07.684Z,929.63
2017-04-28T00:30:35.796Z,929.62
2017-04-28T00:31:04.163Z,929.66
2017-04-28T00:31:32.464Z,929.65
2017-04-28T00:32:43.909Z,929.59
2017-04-28T00:33:12.185Z,929.67
2017-04-28T00:33:40.419Z,929.66
2017-04-28T00:34:08.711Z,929.64
2017-04-28T00:34:36.991Z,929.66
2017-04-28T00:35:05.309Z,929.68
2017-04-28T00:35:33.569Z,929.61
2017-04-28T00:36:01.890Z,929.64
2017-04-28T00:36:30.215Z,929.63
2017-04-28T00:36:58.496Z,929.7
2017-04-28T00:37:26.703Z,929.66
2017-04-28T00:38:37.969Z,929.68
2017-04-28T00:39:06.245Z,929.7
2017-04-28T00:39:34.474Z,929.71
2017-04-28T00:40:02.767Z,929.66
2017-04-28T00:40:31.038Z,929.7
2017-04-28T00:40:59.261Z,929.67
2017-04-28T00:41:27.618Z,929.71
2017-04-28T00:41:55.942Z,929.66
2017-04-28T00:42:24.174Z,929.69
2017-04-28T00:42:52.546Z,929.69
2017-04-28T00:43:20.765Z,929.71
2017-04-28T00:44:32.118Z,929.67
2017-04-28T00:45:00.391Z,929.69
2017-04-28T00:45:28.613Z,929.65
2017-04-28T00:45:56.992Z,929.69
2017-04-28T00:46:25.269Z,929.71
2017-04-28T00:46:53.493Z,929.67
2017-04-28T00:47:21.658Z,929.7
2017-04-28T00:47:49.885Z,929.67
2017-04-28T00:48:18.019Z,929.68
2017-04-28T00:48:46.389Z,929.68
2017-04-28T00:49:14.690Z,929.68
2017-04-28T00:50:26.043Z,929.71
2017-04-28T00:50:54.413Z,929.71
2017-04-28T00:51:22.629Z,929.68
2017-04-28T00:51:51.009Z,929.71
2017-04-28T00:52:19.387Z,929.67
2017-04-28T00:52:47.617Z,929.71
2017-04-28T00:53:15.697Z,929.7
2017-04-28T00:53:43.916Z,929.68
2017-04-28T00:54:12.147Z,929.69
2017-04-28T00:54:40.422Z,929.65
2017-04-28T00:55:08.553Z,929.67
2017-04-28T00:56:19.996Z,929.65
2017-04-28T00:56:48.274Z,929.62
2017-04-28T00:57:16.407Z,929.61
2017-04-28T00:57:44.787Z,929.64
2017-04-28T00:58:13.067Z,929.69
2017-04-28T00:58:41.291Z,929.66
2017-04-28T00:59:09.466Z,929.59
2017-04-28T00:59:37.693Z,929.64
2017-04-28T01:00:05.830Z,929.65
2017-04-28T01:00:34.204Z,929.67
2017-04-28T01:01:02.421Z,929.65
2017-04-28T01:02:13.590Z,929.6
2017-04-28T01:02:41.964Z,929.61
2017-04-28T01:03:10.189Z,929.62
2017-04-28T01:03:38.485Z,929.63
2017-04-28T01:04:06.700Z,929.66
2017-04-28T01:04:35.019Z,929.65
2017-04-28T01:05:03.280Z,929.66
2017-04-28T01:05:31.505Z,929.6
2017-04-28T01:05:59.734Z,929.6
2017-04-28T01:06:28.109Z,929.67
2017-04-28T01:06:56.422Z,929.61
2017-04-28T01:08:07.866Z,929.62
2017-04-28T01:08:36.138Z,929.63
2017-04-28T01:09:04.373Z,929.61
2017-04-28T01:09:32.753Z,929.57
2017-04-28T01:10:01.032Z,929.58
2017-04-28T01:10:29.352Z,929.66
2017-04-28T01:10:57.609Z,929.67
2017-04-28T01:11:25.830Z,929.57
2017-04-28T01:11:54.055Z,929.61
2017-04-28T01:12:22.334Z,929.59
2017-04-28T01:12:50.649Z,929.6
2017-04-28T01:14:02.093Z,929.59
2017-04-28T01:14:30.366Z,929.6
2017-04-28T01:14:58.504Z,929.6
2017-04-28T01:15:26.882Z,929.54
2017-04-28T01:15:55.070Z,929.54
2017-04-28T01:16:23.387Z,929.58
2017-04-28T01:16:51.740Z,929.55
2017-04-28T01:17:20.054Z,929.59
2017-04-28T01:17:48.093Z,929.59
2017-04-28T01:18:16.283Z,929.58
2017-04-28T01:18:44.591Z,929.55
2017-04-28T01:19:55.933Z,929.59
2017-04-28T01:20:24.305Z,929.58
2017-04-28T01:20:52.532Z,929.56
2017-04-28T01:21:20.824Z,929.57
2017-04-28T01:21:49.194Z,929.55
2017-04-28T01:22:17.518Z,929.56
2017-04-28T01:22:45.685Z,929.56
2017-04-28T01:23:14.010Z,929.58
2017-04-28T01:23:42.240Z,929.57
2017-04-28T01:24:11.180Z,929.56
2017-04-28T01:24:39.487Z,929.58
2017-04-28T01:25:50.830Z,929.61
2017-04-28T01:26:19.197Z,929.61
2017-04-28T01:26:47.229Z,929.63
2017-04-28T01:27:15.609Z,929.61
2017-04-28T01:27:43.792Z,929.62
2017-04-28T01:28:12.107Z,929.61
2017-04-28T01:28:40.365Z,929.59
2017-04-28T01:29:08.592Z,929.6
2017-04-28T01:29:36.817Z,929.59
2017-04-28T01:30:05.187Z,929.62
2017-04-28T01:30:33.493Z,929.61
2017-04-28T01:31:44.839Z,929.62
2017-04-28T01:32:13.211Z,929.64
2017-04-28T01:32:41.528Z,929.62
2017-04-28T01:33:09.902Z,929.63
2017-04-28T01:33:38.188Z,929.63
2017-04-28T01:34:06.504Z,929.64
2017-04-28T01:34:34.859Z,929.62
2017-04-28T01:35:02.996Z,929.6
2017-04-28T01:35:31.229Z,929.63
2017-04-28T01:35:59.507Z,929.62
2017-04-28T01:36:27.718Z,929.55
2017-04-28T01:37:39.065Z,929.56
2017-04-28T01:38:07.439Z,929.59
2017-04-28T01:38:35.665Z,929.59
2017-04-28T01:39:03.953Z,929.56
2017-04-28T01:39:32.233Z,929.55
2017-04-28T01:40:00.366Z,929.56
2017-04-28T01:40:28.708Z,929.59
2017-04-28T01:40:57.025Z,929.62
2017-04-28T01:41:25.352Z,929.6
2017-04-28T01:41:53.630Z,929.59
2017-04-28T01:42:21.939Z,929.56
2017-04-28T01:43:33.383Z,929.58
2017-04-28T01:44:01.753Z,929.59
2017-04-28T01:44:29.888Z,929.58
2017-04-28T01:44:58.272Z,929.6
2017-04-28T01:45:26.552Z,929.58
2017-04-28T01:45:54.683Z,929.59
2017-04-28T01:46:23.035Z,929.57
2017-04-28T01:46:51.356Z,929.59
2017-04-28T01:47:19.592Z,929.56
2017-04-28T01:47:47.965Z,929.55
2017-04-28T01:48:16.272Z,929.58
2017-04-28T01:49:27.523Z,929.57
2017-04-28T01:49:55.835Z,929.59
2017-04-28T01:50:24.075Z,929.55
2017-04-28T01:50:52.276Z,929.57
2017-04-28T01:51:20.558Z,929.63
2017-04-28T01:51:48.686Z,929.6
2017-04-28T01:52:16.953Z,929.55
2017-04-28T01:52:45.272Z,929.57
2017-04-28T01:53:13.226Z,929.55
2017-04-28T01:53:41.602Z,929.54
2017-04-28T01:54:09.912Z,929.55
2017-04-28T01:55:21.261Z,929.53
2017-04-28T01:55:49.539Z,929.49
2017-04-28T01:56:17.766Z,929.51
2017-04-28T01:56:46.058Z,929.45
2017-04-28T01:57:14.427Z,929.47
2017-04-28T01:57:42.654Z,929.42
2017-04-28T01:58:10.822Z,929.42
2017-04-28T01:58:39.058Z,929.45
2017-04-28T01:59:07.288Z,929.42
2017-04-28T01:59:35.656Z,929.44
2017-04-28T02:00:03.870Z,929.47
2017-04-28T02:01:15.221Z,929.43
2017-04-28T02:01:43.494Z,929.47
2017-04-28T02:02:11.725Z,929.49
2017-04-28T02:02:40.107Z,929.48
2017-04-28T02:03:08.482Z,929.49
2017-04-28T02:03:36.525Z,929.5
2017-04-28T02:04:04.874Z,929.48
2017-04-28T02:04:33.193Z,929.47
2017-04-28T02:05:01.516Z,929.54
2017-04-28T02:05:29.891Z,929.52
2017-04-28T02:05:58.201Z,929.51
2017-04-28T02:07:09.645Z,929.54
2017-04-28T02:07:37.921Z,929.49
2017-04-28T02:08:06.234Z,929.46
2017-04-28T02:08:34.616Z,929.51
2017-04-28T02:09:02.893Z,929.56
2017-04-28T02:09:31.210Z,929.5
2017-04-28T02:09:59.376Z,929.47
2017-04-28T02:10:27.695Z,929.46
2017-04-28T02:10:55.832Z,929.43
2017-04-28T02:11:24.203Z,929.47
2017-04-28T02:11:52.510Z,929.48
2017-04-28T02:13:03.862Z,929.47
2017-04-28T02:13:32.232Z,929.44
2017-04-28T02:14:00.553Z,929.45
2017-04-28T02:14:28.929Z,929.47
2017-04-28T02:14:57.301Z,929.44
2017-04-28T02:15:25.621Z,929.4
2017-04-28T02:15:53.978Z,929.51
2017-04-28T02:16:22.296Z,929.49
2017-04-28T02:16:50.521Z,929.44
2017-04-28T02:17:18.892Z,929.45
2017-04-28T02:17:47.199Z,929.46
2017-04-28T02:18:58.642Z,929.49
2017-04-28T02:19:26.821Z,929.45
2017-04-28T02:19:54.954Z,929.47
2017-04-28T02:20:23.337Z,929.46
2017-04-28T02:20:51.614Z,929.47
2017-04-28T02:21:19.839Z,929.48
2017-04-28T02:21:48.193Z,929.46
2017-04-28T02:22:16.513Z,929.52
2017-04-28T02:22:44.839Z,929.48
2017-04-28T02:23:13.208Z,929.51
2017-04-28T02:23:41.516Z,929.47
2017-04-28T02:24:52.775Z,929.52
2017-04-28T02:25:21.143Z,929.56
2017-04-28T02:25:49.400Z,929.54
2017-04-28T02:26:17.688Z,929.57
2017-04-28T02:26:46.061Z,929.56
2017-04-28T02:27:14.381Z,929.58
2017-04-28T02:27:42.641Z,929.58
2017-04-28T02:28:10.867Z,929.57
2017-04-28T02:28:39.098Z,929.58
2017-04-28T02:29:07.464Z,929.57
2017-04-28T02:29:35.777Z,929.58
2017-04-28T02:30:47.221Z,929.57
2017-04-28T02:31:15.588Z,929.59
2017-04-28T02:31:43.721Z,929.59
2017-04-28T02:32:12.100Z,929.57
2017-04-28T02:32:40.476Z,929.6
2017-04-28T02:33:08.701Z,929.62
2017-04-28T02:33:36.872Z,929.61
2017-04-28T02:34:05.197Z,929.59
2017-04-28T02:34:33.247Z,929.65
2017-04-28T02:35:01.609Z,929.67
2017-04-28T02:35:29.914Z,929.65
2017-04-28T02:36:41.357Z,929.63
2017-04-28T02:37:09.635Z,929.71
2017-04-28T02:37:37.860Z,929.67
2017-04-28T02:38:06.056Z,929.81
2017-04-28T02:38:34.337Z,929.72
2017-04-28T02:39:02.568Z,929.7
2017-04-28T02:39:30.829Z,929.72
2017-04-28T02:39:59.054Z,929.73
2017-04-28T02:40:27.467Z,929.73
2017-04-28T02:40:55.833Z,929.75
2017-04-28T02:41:24.057Z,929.7
2017-04-28T02:42:35.500Z,929.72
2017-04-28T02:43:03.873Z,929.7
2017-04-28T02:43:32.192Z,929.73
2017-04-28T02:44:00.574Z,929.71
2017-04-28T02:44:28.761Z,929.72
2017-04-28T02:44:56.982Z,929.76
2017-04-28T02:45:25.246Z,929.7
2017-04-28T02:45:53.564Z,929.73
2017-04-28T02:46:21.703Z,929.72
2017-04-28T02:46:49.887Z,929.75
2017-04-28T02:47:18.101Z,929.72
2017-04-28T02:48:29.537Z,929.69
2017-04-28T02:48:57.816Z,929.68
2017-04-28T02:49:26.041Z,929.64
2017-04-28T02:49:54.420Z,929.7
2017-04-28T02:50:22.606Z,929.67
2017-04-28T02:50:50.836Z,929.71
2017-04-28T02:51:19.011Z,929.67
2017-04-28T02:51:47.331Z,929.67
2017-04-28T02:52:15.481Z,929.7
2017-04-28T02:52:43.854Z,929.75
2017-04-28T02:53:12.162Z,929.69
2017-04-28T02:54:23.605Z,929.7
2017-04-28T02:54:51.883Z,929.7
2017-04-28T02:55:20.106Z,929.67
2017-04-28T02:55:48.490Z,929.68
2017-04-28T02:56:16.863Z,929.74
2017-04-28T02:56:45.180Z,929.74
2017-04-28T02:57:13.444Z,929.7
2017-04-28T02:57:41.766Z,929.76
2017-04-28T02:58:10.088Z,929.78
2017-04-28T02:58:38.371Z,929.76
2017-04-28T02:59:06.681Z,929.78
2017-04-28T03:00:17.935Z,929.77
2017-04-28T03:00:46.308Z,929.76
2017-04-28T03:01:14.530Z,929.73
2017-04-28T03:01:42.907Z,929.71
2017-04-28T03:02:11.186Z,929.74
2017-04-28T03:02:39.506Z,929.78
2017-04-28T03:03:07.680Z,929.68
2017-04-28T03:03:36.002Z,929.74
2017-04-28T03:04:04.233Z,929.73
2017-04-28T03:04:32.609Z,929.75
2017-04-28T03:05:00.818Z,929.75
2017-04-28T03:06:12.080Z,929.7
2017-04-28T03:06:40.355Z,929.75
2017-04-28T03:07:08.581Z,929.74
2017-04-28T03:07:36.868Z,929.71
2017-04-28T03:08:05.152Z,929.72
2017-04-28T03:08:33.382Z,929.73
2017-04-28T03:09:01.639Z,929.75
2017-04-28T03:09:29.872Z,929.72
2017-04-28T03:09:58.100Z,929.76
2017-04-28T03:10:26.473Z,929.72
2017-04-28T03:10:54.778Z,929.74
2017-04-28T03:12:06.221Z,929.72
2017-04-28T03:12:34.594Z,929.75
2017-04-28T03:13:02.728Z,929.79
2017-04-28T03:13:31.118Z,929.78
2017-04-28T03:13:59.395Z,929.82
2017-04-28T03:14:27.707Z,929.75
2017-04-28T03:14:55.955Z,929.8
2017-04-28T03:15:24.183Z,929.76
2017-04-28T03:15:52.502Z,929.75
2017-04-28T03:16:20.871Z,929.77
2017-04-28T03:16:49.184Z,929.88
2017-04-28T03:18:00.435Z,929.8
2017-04-28T03:18:28.618Z,929.82
2017-04-28T03:18:56.849Z,929.79
2017-04-28T03:19:25.174Z,929.77
2017-04-28T03:19:53.446Z,929.75
2017-04-28T03:20:21.756Z,929.78
2017-04-28T03:20:50.001Z,929.81
2017-04-28T03:21:18.333Z,929.75
2017-04-28T03:21:46.473Z,929.82
2017-04-28T03:22:14.752Z,929.8
2017-04-28T03:22:42.966Z,929.82
2017-04-28T03:23:54.125Z,929.78
2017-04-28T03:24:22.397Z,929.82
2017-04-28T03:24:50.725Z,929.84
2017-04-28T03:25:19.105Z,929.87
2017-04-28T03:25:47.477Z,929.84
2017-04-28T03:26:15.791Z,929.82
2017-04-28T03:26:44.041Z,929.81
2017-04-28T03:27:12.276Z,929.84
2017-04-28T03:27:40.413Z,929.81
2017-04-28T03:28:08.777Z,929.77
2017-04-28T03:28:37.089Z,929.83
2017-04-28T03:29:48.533Z,929.83
2017-04-28T03:30:16.898Z,929.77
2017-04-28T03:30:45.131Z,929.79
2017-04-28T03:31:13.520Z,929.8
2017-04-28T03:31:41.701Z,929.79
2017-04-28T03:32:09.917Z,929.74
2017-04-28T03:32:38.165Z,929.8
2017-04-28T03:33:06.490Z,929.8
2017-04-28T03:33:34.815Z,929.73
2017-04-28T03:34:03.184Z,929.83
2017-04-28T03:34:31.402Z,929.74
2017-04-28T03:35:42.845Z,929.78
2017-04-28T03:36:11.211Z,929.76
2017-04-28T03:36:39.533Z,929.73
2017-04-28T03:37:07.919Z,929.76
2017-04-28T03:37:36.120Z,929.74
2017-04-28T03:38:04.339Z,929.76
2017-04-28T03:38:32.587Z,929.76
2017-04-28T03:39:00.813Z,929.74
2017-04-28T03:39:29.046Z,929.75
2017-04-28T03:39:57.327Z,929.72
2017-04-28T03:40:25.443Z,929.75
2017-04-28T03:41:36.699Z,929.74
2017-04-28T03:42:04.881Z,929.7
2017-04-28T03:42:33.123Z,929.73
2017-04-28T03:43:01.418Z,929.75
2017-04-28T03:43:29.598Z,929.75
2017-04-28T03:43:57.906Z,929.73
2017-04-28T03:44:26.251Z,929.79
2017-04-28T03:44:54.482Z,929.75
2017-04-28T03:45:22.622Z,929.74
2017-04-28T03:45:50.906Z,929.69
2017-04-28T03:46:19.220Z,929.69
2017-04-28T03:47:30.662Z,929.69
2017-04-28T03:47:59.031Z,929.7
2017-04-28T03:48:27.260Z,929.69
2017-04-28T03:48:55.646Z,929.7
2017-04-28T03:49:23.919Z,929.73
2017-04-28T03:49:52.230Z,929.68
2017-04-28T03:50:20.478Z,929.68
2017-04-28T03:50:48.800Z,929.64
2017-04-28T03:51:17.124Z,929.71
2017-04-28T03:51:45.504Z,929.65
2017-04-28T03:52:13.814Z,929.61
2017-04-28T03:53:25.165Z,929.6
2017-04-28T03:53:53.524Z,929.65
2017-04-28T03:54:21.754Z,929.67
2017-04-28T03:54:50.144Z,929.66
2017-04-28T03:55:18.418Z,929.64
2017-04-28T03:55:46.727Z,929.64
2017-04-28T03:56:14.975Z,929.67
2017-04-28T03:56:43.294Z,929.59
2017-04-28T03:57:11.431Z,929.6
2017-04-28T03:57:39.806Z,929.53
2017-04-28T03:58:08.124Z,929.55
2017-04-28T03:59:19.570Z,929.58
2017-04-28T03:59:47.840Z,929.6
2017-04-28T04:00:16.163Z,929.56
2017-04-28T04:00:44.544Z,929.6
2017-04-28T04:01:12.728Z,929.58
2017-04-28T04:01:40.946Z,929.57
2017-04-28T04:02:09.191Z,929.57
2017-04-28T04:02:37.513Z,929.58
2017-04-28T04:03:05.584Z,929.54
2017-04-28T04:03:33.956Z,929.57
2017-04-28T04:04:02.272Z,929.58
2017-04-28T04:05:13.708Z,929.54
2017-04-28T04:05:41.883Z,929.56
2017-04-28T04:06:10.120Z,929.5
2017-04-28T04:06:38.508Z,929.6
2017-04-28T04:07:06.690Z,929.54
2017-04-28T04:07:34.812Z,929.55
2017-04-28T04:08:03.153Z,929.56
2017-04-28T04:08:31.389Z,929.51
2017-04-28T04:08:59.715Z,929.51
2017-04-28T04:09:28.092Z,929.5
2017-04-28T04:09:56.406Z,929.47
2017-04-28T04:11:07.847Z,929.5
2017-04-28T04:11:36.217Z,929.49
2017-04-28T04:12:04.536Z,929.47
2017-04-28T04:12:32.923Z,929.49
2017-04-28T04:13:01.196Z,929.52
2017-04-28T04:13:29.411Z,929.51
2017-04-28T04:13:57.751Z,929.52
2017-04-28T04:14:26.069Z,929.53
2017-04-28T04:14:54.393Z,929.54
2017-04-28T04:15:22.672Z,929.48
2017-04-28T04:15:50.984Z,929.51
2017-04-28T04:17:02.335Z,929.49
2017-04-28T04:17:30.612Z,929.5
2017-04-28T04:17:58.759Z,929.52
2017-04-28T04:18:27.143Z,929.56
2017-04-28T04:18:55.420Z,929.52
2017-04-28T04:19:23.726Z,929.54
2017-04-28T04:19:52.068Z,929.53
2017-04-28T04:20:20.385Z,929.52
2017-04-28T04:20:48.611Z,929.53
2017-04-28T04:21:16.978Z,929.52
2017-04-28T04:21:45.203Z,929.53
2017-04-28T04:22:56.373Z,929.53
2017-04-28T04:23:24.549Z,929.56
2017-04-28T04:23:52.784Z,929.49
2017-04-28T04:24:21.175Z,929.58
2017-04-28T04:24:49.449Z,929.53
2017-04-28T04:25:17.756Z,929.48
2017-04-28T04:25:46.007Z,929.53
2017-04-28T04:26:14.236Z,929.5
2017-04-28T04:26:42.554Z,929.52
2017-04-28T04:27:10.931Z,929.52
2017-04-28T04:27:39.247Z,929.52
2017-04-28T04:28:50.503Z,929.46
2017-04-28T04:29:18.870Z,929.52
2017-04-28T04:29:47.189Z,929.52
2017-04-28T04:30:15.486Z,929.51
2017-04-28T04:30:43.765Z,929.49
2017-04-28T04:31:11.971Z,929.47
2017-04-28T04:31:40.224Z,929.48
2017-04-28T04:32:08.551Z,929.47
2017-04-28T04:32:36.779Z,929.46
2017-04-28T04:33:05.150Z,929.45
2017-04-28T04:33:33.277Z,929.41
2017-04-28T04:34:44.632Z,929.44
2017-04-28T04:35:12.993Z,929.42
2017-04-28T04:35:41.314Z,929.46
2017-04-28T04:36:09.700Z,929.47
2017-04-28T04:36:38.069Z,929.49
2017-04-28T04:37:06.381Z,929.52
2017-04-28T04:37:34.632Z,929.49
2017-04-28T04:38:02.954Z,929.51
2017-04-28T04:38:31.280Z,929.51
2017-04-28T04:38:59.655Z,929.48
2017-04-28T04:39:27.974Z,929.56
2017-04-28T04:40:39.419Z,929.49
2017-04-28T04:41:07.689Z,929.51
2017-04-28T04:41:36.017Z,929.5
2017-04-28T04:42:04.407Z,929.49
2017-04-28T04:42:32.692Z,929.53
2017-04-28T04:43:00.816Z,929.53
2017-04-28T04:43:29.157Z,929.53
2017-04-28T04:43:57.293Z,929.53
2017-04-28T04:44:25.428Z,929.56
2017-04-28T04:44:53.805Z,929.52
2017-04-28T04:45:22.120Z,929.54
2017-04-28T04:46:33.468Z,929.5
2017-04-28T04:47:01.834Z,929.49
2017-04-28T04:47:30.156Z,929.53
2017-04-28T04:47:58.542Z,929.53
2017-04-28T04:48:26.911Z,929.54
2017-04-28T04:48:55.126Z,929.57
2017-04-28T04:49:23.380Z,929.58
2017-04-28T04:49:51.699Z,929.54
2017-04-28T04:50:19.929Z,929.56
2017-04-28T04:50:48.302Z,929.58
2017-04-28T04:51:16.615Z,929.55
2017-04-28T04:52:27.967Z,929.54
2017-04-28T04:52:56.336Z,929.57
2017-04-28T04:53:24.567Z,929.55
2017-04-28T04:53:52.956Z,929.59
2017-04-28T04:54:21.322Z,929.59
2017-04-28T04:54:49.538Z,929.46
2017-04-28T04:55:17.788Z,929.58
2017-04-28T04:55:46.108Z,929.6
2017-04-28T04:56:14.333Z,929.58
2017-04-28T04:56:42.702Z,929.56
2017-04-28T04:57:11.015Z,929.6
2017-04-28T04:58:22.458Z,929.62
2017-04-28T04:58:50.824Z,929.59
2017-04-28T04:59:19.148Z,929.59
2017-04-28T04:59:47.531Z,929.6
2017-04-28T05:00:15.803Z,929.57
2017-04-28T05:00:44.027Z,929.59
2017-04-28T05:01:12.277Z,929.62
2017-04-28T05:01:40.604Z,929.67
2017-04-28T05:02:08.837Z,929.58
2017-04-28T05:02:37.213Z,929.53
2017-04-28T05:03:05.525Z,929.53
2017-04-28T05:04:16.958Z,929.52
2017-04-28T05:04:45.331Z,929.49
2017-04-28T05:05:13.657Z,929.47
2017-04-28T05:05:42.042Z,929.5
2017-04-28T05:06:10.318Z,929.54
2017-04-28T05:06:38.536Z,929.51
2017-04-28T05:07:06.694Z,929.53
2017-04-28T05:07:35.018Z,929.52
2017-04-28T05:08:03.336Z,929.48
2017-04-28T05:08:31.709Z,929.46
2017-04-28T05:09:00.021Z,929.41
2017-04-28T05:10:11.465Z,929.44
2017-04-28T05:10:39.836Z,929.45
2017-04-28T05:11:08.163Z,929.53
2017-04-28T05:11:36.548Z,929.44
2017-04-28T05:12:04.723Z,929.46
2017-04-28T05:12:33.032Z,929.45
2017-04-28T05:13:01.097Z,929.48
2017-04-28T05:13:29.419Z,929.43
2017-04-28T05:13:57.746Z,929.51
2017-04-28T05:14:26.112Z,929.49
2017-04-28T05:14:54.424Z,929.47
2017-04-28T05:16:05.774Z,929.45
2017-04-28T05:16:34.145Z,929.5
2017-04-28T05:17:02.293Z,929.47
2017-04-28T05:17:30.680Z,929.46
2017-04-28T05:17:58.955Z,929.48
2017-04-28T05:18:27.260Z,929.47
2017-04-28T05:18:55.508Z,929.47
2017-04-28T05:19:23.833Z,929.48
2017-04-28T05:19:52.160Z,929.5
2017-04-28T05:20:20.533Z,929.47
2017-04-28T05:20:48.750Z,929.48
2017-04-28T05:22:00.098Z,929.49
2017-04-28T05:22:28.471Z,929.49
2017-04-28T05:22:56.703Z,929.45
2017-04-28T05:23:25.094Z,929.49
2017-04-28T05:23:53.374Z,929.43
2017-04-28T05:24:21.598Z,929.44
2017-04-28T05:24:49.941Z,929.46
2017-04-28T05:25:18.268Z,929.45
2017-04-28T05:25:46.595Z,929.44
2017-04-28T05:26:14.867Z,929.46
2017-04-28T05:26:43.086Z,929.44
2017-04-28T05:27:54.527Z,929.45
2017-04-28T05:28:22.900Z,929.42
2017-04-28T05:28:51.225Z,929.4
2017-04-28T05:29:19.612Z,929.39
2017-04-28T05:29:47.981Z,929.41
2017-04-28T05:30:16.201Z,929.43
2017-04-28T05:30:44.543Z,929.36
2017-04-28T05:31:12.772Z,929.37
2017-04-28T05:31:41.003Z,929.35
2017-04-28T05:32:09.380Z,929.31
2017-04-28T05:32:37.698Z,929.32
2017-04-28T05:33:48.955Z,929.36
2017-04-28T05:34:17.040Z,929.3
2017-04-28T05:34:45.358Z,929.31
2017-04-28T05:35:13.743Z,929.31
2017-04-28T05:35:42.017Z,929.3
2017-04-28T05:36:10.138Z,929.32
2017-04-28T05:36:38.477Z,929.33
2017-04-28T05:37:06.796Z,929.31
2017-04-28T05:37:35.118Z,929.34
2017-04-28T05:38:03.397Z,929.29
2017-04-28T05:38:31.712Z,929.3
2017-04-28T05:39:43.153Z,929.27
2017-04-28T05:40:11.427Z,929.32
2017-04-28T05:40:39.747Z,929.31
2017-04-28T05:41:08.035Z,929.29
2017-04-28T05:41:36.410Z,929.23
2017-04-28T05:42:04.624Z,929.26
2017-04-28T05:42:32.870Z,929.2
2017-04-28T05:43:01.193Z,929.22
2017-04-28T05:43:29.421Z,929.16
2017-04-28T05:43:57.701Z,929.19
2017-04-28T05:44:26.011Z,929.15
2017-04-28T05:45:37.348Z,929.16
2017-04-28T05:46:05.526Z,929.19
2017-04-28T05:46:33.848Z,929.19
2017-04-28T05:47:02.140Z,929.15
2017-04-28T05:47:30.413Z,929.2
2017-04-28T05:47:58.721Z,929.2
2017-04-28T05:48:27.064Z,929.23
2017-04-28T05:48:55.388Z,929.24
2017-04-28T05:49:23.711Z,929.16
2017-04-28T05:49:51.987Z,929.2
2017-04-28T05:50:20.294Z,929.19
2017-04-28T05:51:31.731Z,929.22
2017-04-28T05:52:00.097Z,929.14
2017-04-28T05:52:28.421Z,929.22
2017-04-28T05:52:56.805Z,929.18
2017-04-28T05:53:25.172Z,929.14
2017-04-28T05:53:53.380Z,929.13
2017-04-28T05:54:21.721Z,929.2
2017-04-28T05:54:50.044Z,929.14
2017-04-28T05:55:18.274Z,929.07
2017-04-28T05:55:46.461Z,929.13
2017-04-28T05:56:14.675Z,929.12
2017-04-28T05:57:26.113Z,929.09
2017-04-28T05:57:54.480Z,929.13
2017-04-28T05:58:22.799Z,929.09
2017-04-28T05:58:51.090Z,929.06
2017-04-28T05:59:19.462Z,929.06
2017-04-28T05:59:47.677Z,929.06
2017-04-28T06:00:15.929Z,929.04
2017-04-28T06:00:44.255Z,929.01
2017-04-28T06:01:12.576Z,929.02
2017-04-28T06:01:40.989Z,929.01
2017-04-28T06:02:09.272Z,929.02
2017-04-28T06:03:20.715Z,929.01
2017-04-28T06:03:49.082Z,928.95
2017-04-28T06:04:17.405Z,928.98
2017-04-28T06:04:45.788Z,928.95
2017-04-28T06:05:14.062Z,928.97
2017-04-28T06:05:42.277Z,928.93
2017-04-28T06:06:10.523Z,928.95
2017-04-28T06:06:38.842Z,928.95
2017-04-28T06:07:07.160Z,928.95
2017-04-28T06:07:35.434Z,928.96
2017-04-28T06:08:03.652Z,928.94
2017-04-28T06:09:15.093Z,928.97
2017-04-28T06:09:43.362Z,929
2017-04-28T06:10:11.685Z,928.98
2017-04-28T06:10:40.071Z,929.02
2017-04-28T06:11:08.344Z,928.99
2017-04-28T06:11:36.559Z,928.96
2017-04-28T06:12:04.900Z,928.93
2017-04-28T06:12:33.224Z,928.9
2017-04-28T06:13:01.454Z,928.94
2017-04-28T06:13:29.730Z,928.99
2017-04-28T06:13:58.044Z,928.95
2017-04-28T06:15:09.480Z,928.92
2017-04-28T06:15:37.752Z,928.89
2017-04-28T06:16:06.075Z,928.94
2017-04-28T06:16:34.370Z,928.94
2017-04-28T06:17:02.741Z,928.94
2017-04-28T06:17:30.951Z,928.94
2017-04-28T06:17:59.193Z,928.94
2017-04-28T06:18:27.519Z,928.97
2017-04-28T06:18:55.835Z,928.98
2017-04-28T06:19:24.113Z,928.95
2017-04-28T06:19:52.331Z,928.95
2017-04-28T06:21:03.768Z,928.96
2017-04-28T06:21:32.136Z,929
2017-04-28T06:22:00.463Z,928.95
2017-04-28T06:22:28.755Z,928.94
2017-04-28T06:22:57.123Z,928.96
2017-04-28T06:23:25.427Z,928.97
2017-04-28T06:23:53.767Z,928.99
2017-04-28T06:24:22.087Z,928.99
2017-04-28T06:24:50.412Z,928.98
2017-04-28T06:25:18.786Z,928.98
2017-04-28T06:25:47.003Z,929.01
2017-04-28T06:26:58.343Z,929
2017-04-28T06:27:26.708Z,929.07
2017-04-28T06:27:55.032Z,929.03
2017-04-28T06:28:23.418Z,928.99
2017-04-28T06:28:51.697Z,929.02
2017-04-28T06:29:19.908Z,929
2017-04-28T06:29:48.253Z,928.95
2017-04-28T06:30:16.575Z,928.99
2017-04-28T06:30:44.801Z,929.04
2017-04-28T06:31:12.987Z,929.06
2017-04-28T06:31:41.017Z,928.99
2017-04-28T06:32:52.462Z,928.96
2017-04-28T06:33:20.639Z,929.01
2017-04-28T06:33:48.868Z,928.96
2017-04-28T06:34:17.168Z,928.93
2017-04-28T06:34:45.535Z,928.95
2017-04-28T06:35:13.838Z,928.94
2017-04-28T06:35:41.993Z,928.99
2017-04-28T06:36:10.313Z,928.99
2017-04-28T06:36:38.639Z,928.96
2017-04-28T06:37:06.908Z,928.96
2017-04-28T06:37:35.214Z,928.99
2017-04-28T06:38:46.655Z,928.95
2017-04-28T06:39:15.016Z,928.98
2017-04-28T06:39:43.336Z,928.98
2017-04-28T06:40:11.720Z,928.94
2017-04-28T06:40:40.001Z,928.92
2017-04-28T06:41:08.302Z,928.95
2017-04-28T06:41:36.460Z,928.93
2017-04-28T06:42:04.783Z,928.88
2017-04-28T06:42:33.010Z,928.92
2017-04-28T06:43:01.387Z,928.93
2017-04-28T06:43:29.697Z,928.9